Time;durP1;ratioP1;P1;durP2;ratioP2;P2;SDS_P1;SDS_P2;PMS_P1;PMS_P2;Temp;Humidity;BMP_temperature;BMP_pressure;BME280_temperature;BME280_humidity;BME280_pressure;Samples;Min_cycle;Max_cycle;Signal;HPM_P1;HPM_P2
2021/11/12 00:14:35;;;;;;;51.53;22.03;;;3.00;99.90;;;3.45;72.95;98132.22;4948315;29;20057;-50
2021/11/12 00:17:09;;;;;;;63.00;22.63;;;3.00;99.90;;;3.45;72.81;98126.94;4948399;28;20067;-49
2021/11/12 00:19:38;;;;;;;36.80;19.58;;;2.90;99.90;;;3.43;72.60;98118.31;4949227;28;20077;-48
2021/11/12 00:22:07;;;;;;;38.57;20.33;;;3.00;99.90;;;3.47;72.67;98120.66;4947930;28;20245;-47
2021/11/12 00:24:36;;;;;;;57.57;21.17;;;3.10;99.90;;;3.47;72.93;98128.53;4945843;29;20062;-46
2021/11/12 00:27:06;;;;;;;59.37;20.43;;;3.00;99.90;;;3.45;73.07;98124.31;4948340;28;20057;-47
2021/11/12 00:32:43;;;;;;;36.40;20.73;;;3.00;99.90;;;3.45;72.83;98122.53;4946946;29;20047;-47
2021/11/12 00:35:24;;;;;;;39.53;17.93;;;3.00;99.90;;;3.46;72.44;98126.00;4946720;29;20058;-49
2021/11/12 00:37:59;;;;;;;60.20;19.57;;;3.00;99.90;;;3.46;72.69;98124.22;4947221;29;20053;-51
2021/11/12 00:40:31;;;;;;;42.70;20.50;;;3.00;99.90;;;3.41;72.65;98121.03;4947070;29;20055;-47
2021/11/12 00:45:41;;;;;;;41.40;19.58;;;2.90;99.90;;;3.41;73.08;98139.47;4946257;29;20055;-47
2021/11/12 00:48:13;;;;;;;47.80;19.90;;;3.00;99.90;;;3.43;72.60;98132.34;4947228;29;20066;-48
2021/11/12 00:55:45;;;;;;;44.70;19.67;;;3.10;99.90;;;3.46;73.26;98120.75;4945662;28;20043;-49
2021/11/12 00:58:16;;;;;;;42.13;17.60;;;3.00;99.90;;;3.44;72.37;98134.00;4947880;28;20055;-48
2021/11/12 01:00:45;;;;;;;41.13;18.63;;;3.00;99.90;;;3.41;72.97;98126.31;4947537;29;20059;-48
2021/11/12 01:03:13;;;;;;;35.27;17.87;;;2.90;99.90;;;3.41;72.66;98128.09;4947110;29;20366;-46
2021/11/12 01:05:42;;;;;;;50.20;19.33;;;2.90;99.90;;;3.40;72.57;98118.53;4947362;28;20264;-47
2021/11/12 01:08:10;;;;;;;49.30;20.13;;;2.90;99.90;;;3.39;72.40;98132.63;4946992;29;20487;-49
2021/11/12 01:10:38;;;;;;;112.07;20.87;;;2.90;99.90;;;3.39;72.68;98122.94;4946839;28;20059;-51
2021/11/12 01:13:05;;;;;;;31.80;19.00;;;2.90;99.90;;;3.37;72.38;98124.00;4947305;28;20062;-48
2021/11/12 01:15:34;;;;;;;33.27;17.93;;;2.90;99.90;;;3.36;72.84;98123.16;4946489;29;20256;-47
2021/11/12 01:18:02;;;;;;;38.93;18.20;;;2.90;99.90;;;3.38;72.77;98113.38;4947353;29;20058;-47
2021/11/12 01:20:30;;;;;;;54.57;20.20;;;2.90;99.90;;;3.38;72.56;98109.91;4948108;28;20066;-47
2021/11/12 01:22:58;;;;;;;40.40;18.73;;;2.90;99.90;;;3.32;72.96;98109.38;4945405;28;20073;-49
2021/11/12 01:25:26;;;;;;;55.00;20.70;;;2.80;99.90;;;3.28;72.49;98105.25;4947722;28;20069;-48
2021/11/12 01:27:54;;;;;;;32.80;16.90;;;2.80;99.90;;;3.28;72.48;98104.44;4948651;28;20071;-49
2021/11/12 01:30:22;;;;;;;37.13;18.80;;;2.70;99.90;;;3.29;72.38;98106.09;4944918;29;20059;-46
2021/11/12 01:32:50;;;;;;;40.30;18.80;;;2.80;99.90;;;3.29;72.29;98100.81;4949132;28;20055;-48
2021/11/12 01:35:19;;;;;;;37.87;18.83;;;2.80;99.90;;;3.29;72.78;98087.66;4947631;29;20066;-47
2021/11/12 01:37:49;;;;;;;38.60;19.30;;;2.80;99.90;;;3.31;73.03;98097.13;4945908;29;20069;-47
2021/11/12 01:40:20;;;;;;;35.73;17.73;;;2.90;99.90;;;3.32;72.81;98092.75;4946313;28;20247;-49
2021/11/12 01:43:11;;;;;;;53.30;18.83;;;2.90;99.90;;;3.34;72.66;98094.31;4948154;28;20454;-46
2021/11/12 01:51:24;;;;;;;50.63;18.67;;;2.80;99.90;;;3.35;72.84;98097.78;4946487;29;20047;-49
2021/11/12 01:59:15;;;;;;;67.67;19.93;;;2.90;99.90;;;3.38;72.40;98073.06;4945238;29;20047;-49
2021/11/12 02:01:52;;;;;;;33.83;17.53;;;2.90;99.90;;;3.33;72.48;98084.75;4947566;28;20059;-47
2021/11/12 02:04:25;;;;;;;50.00;17.57;;;2.80;99.90;;;3.31;72.71;98085.78;4946815;28;20043;-50
2021/11/12 02:06:53;;;;;;;49.53;17.90;;;2.80;99.90;;;3.27;72.43;98082.50;4947389;28;20225;-47
2021/11/12 02:09:22;;;;;;;70.07;19.67;;;2.80;99.90;;;3.25;72.21;98080.94;4947584;28;20061;-51
2021/11/12 02:12:32;;;;;;;48.57;18.47;;;2.70;99.90;;;3.23;72.00;98070.50;4950429;28;20047;-47
2021/11/12 02:14:57;;;;;;;50.40;18.03;;;2.70;99.90;;;3.15;71.96;98070.19;4950877;29;20055;-51
2021/11/12 02:17:29;;;;;;;56.03;18.57;;;2.60;99.90;;;3.05;71.77;98066.50;4949313;28;20057;-47
2021/11/12 02:20:06;;;;;;;44.70;18.83;;;2.40;99.90;;;2.98;71.75;98062.59;4950339;29;20254;-49
2021/11/12 02:22:37;;;;;;;41.47;18.27;;;2.40;99.90;;;2.92;72.10;98064.69;4950030;28;20065;-48
2021/11/12 02:25:09;;;;;;;54.07;19.53;;;2.40;99.90;;;2.90;72.04;98052.59;4949738;28;20085;-48
2021/11/12 02:30:10;;;;;;;32.73;17.40;;;2.30;99.90;;;2.86;72.29;98057.22;4949402;28;20089;-47
2021/11/12 02:32:38;;;;;;;52.87;18.90;;;2.30;99.90;;;2.89;71.94;98061.41;4949763;28;20055;-48
2021/11/12 02:35:06;;;;;;;28.50;17.83;;;2.40;99.90;;;2.91;72.62;98055.13;4949980;28;20074;-47
2021/11/12 02:37:34;;;;;;;27.90;18.47;;;2.40;99.90;;;2.93;71.99;98057.66;4963689;28;20062;-49
2021/11/12 02:40:03;;;;;;;37.73;16.30;;;2.40;99.90;;;2.91;72.32;98054.31;4950069;29;20055;-50
2021/11/12 02:42:32;;;;;;;50.30;18.93;;;2.40;99.90;;;2.92;72.29;98053.34;4950778;29;20420;-47
2021/11/12 02:45:00;;;;;;;27.93;16.97;;;2.40;99.90;;;2.92;72.28;98048.91;4948264;28;20067;-49
2021/11/12 02:47:28;;;;;;;26.00;16.73;;;2.50;99.90;;;2.94;72.23;98039.13;4948925;29;20063;-48
2021/11/12 02:49:57;;;;;;;28.33;16.93;;;2.50;99.90;;;2.95;72.17;98047.88;4950200;28;20063;-49
2021/11/12 02:52:26;;;;;;;28.70;17.70;;;2.50;99.90;;;2.96;72.08;98052.19;4950663;29;20062;-47
2021/11/12 02:54:54;;;;;;;29.97;17.60;;;2.50;99.90;;;2.98;72.17;98038.94;4949562;29;20051;-47
2021/11/12 02:57:27;;;;;;;29.23;18.10;;;2.50;99.90;;;2.97;72.17;98040.72;4949933;28;20055;-50
2021/11/12 02:59:58;;;;;;;28.55;16.98;;;2.50;99.90;;;2.98;72.13;98036.31;4948606;28;20369;-48
2021/11/12 03:02:26;;;;;;;35.33;17.53;;;2.50;99.90;;;2.98;72.22;98031.88;4948362;28;20043;-48
2021/11/12 03:04:55;;;;;;;31.07;16.80;;;2.50;99.90;;;2.98;71.89;98034.50;4949505;29;20051;-48
2021/11/12 03:07:23;;;;;;;31.50;17.67;;;2.50;99.90;;;2.95;71.82;98032.94;4949180;28;20079;-49
2021/11/12 03:09:50;;;;;;;37.77;17.10;;;2.50;99.90;;;2.99;71.99;98023.06;4949737;29;20237;-49
2021/11/12 03:12:21;;;;;;;40.13;16.43;;;2.60;99.90;;;3.02;71.87;98022.00;4949883;29;20059;-49
2021/11/12 03:14:51;;;;;;;33.70;16.57;;;2.60;99.90;;;2.98;71.89;98023.16;4947276;29;20059;-48
2021/11/12 03:17:19;;;;;;;26.30;15.63;;;2.50;99.90;;;2.95;71.98;98032.09;4949303;29;20364;-47
2021/11/12 03:19:48;;;;;;;45.03;16.47;;;2.50;99.90;;;2.99;71.87;98024.84;4949671;28;20057;-49
2021/11/12 03:22:19;;;;;;;29.43;16.67;;;2.50;99.90;;;3.00;71.91;98026.50;4947217;29;20063;-49
2021/11/12 03:24:52;;;;;;;33.30;16.07;;;2.60;99.90;;;3.01;71.96;98026.41;4949363;28;20057;-47
2021/11/12 04:06:20;;;;;;;71.13;18.93;;;2.50;99.90;;;2.94;71.93;98022.50;4948220;29;20059;-47
2021/11/12 05:44:37;;;;;;;80.87;19.67;;;2.10;99.90;;;2.68;72.58;98011.13;4946629;28;20051;-47
2021/11/12 05:50:13;;;;;;;58.30;20.73;;;2.30;99.90;;;2.73;72.86;98001.13;4949932;28;20063;-47
2021/11/12 05:55:28;;;;;;;75.97;20.83;;;2.30;99.90;;;2.74;72.86;98001.03;4948671;29;20341;-48
2021/11/12 05:57:58;;;;;;;108.90;22.77;;;2.30;99.90;;;2.69;72.62;97992.59;4949456;29;20065;-42
2021/11/12 06:00:26;;;;;;;77.83;20.70;;;2.20;99.90;;;2.61;72.66;98004.59;4951599;28;20147;-42
2021/11/12 06:02:54;;;;;;;79.20;19.50;;;2.10;99.90;;;2.56;72.35;97997.88;4950529;29;20043;-42
2021/11/12 06:05:22;;;;;;;60.23;20.10;;;2.10;99.90;;;2.50;72.47;98003.53;4950071;28;20081;-42
2021/11/12 06:07:52;;;;;;;52.33;18.77;;;2.00;99.90;;;2.36;72.26;98006.22;4950784;28;20423;-42
2021/11/12 06:10:20;;;;;;;74.93;24.37;;;1.80;99.90;;;2.30;72.86;98007.47;4950115;29;20063;-42
2021/11/12 06:12:48;;;;;;;49.60;18.67;;;1.70;99.90;;;2.29;72.67;98011.03;4950136;28;20246;-43
2021/11/12 06:15:16;;;;;;;64.30;18.93;;;1.80;99.90;;;2.33;72.62;98009.06;4949891;28;20061;-42
2021/11/12 06:17:45;;;;;;;55.53;18.90;;;1.90;99.90;;;2.39;72.96;97994.69;4949701;28;20055;-42
2021/11/12 06:20:13;;;;;;;47.70;19.20;;;1.90;99.90;;;2.39;73.04;97998.13;4949611;28;20051;-44
2021/11/12 06:22:41;;;;;;;45.43;17.43;;;2.00;99.90;;;2.43;72.73;98001.41;4951526;28;20059;-43
2021/11/12 06:25:09;;;;;;;116.17;21.20;;;2.10;99.90;;;2.38;72.51;97995.59;4949361;28;20063;-44
2021/11/12 06:27:37;;;;;;;83.03;19.33;;;1.90;99.90;;;2.41;72.83;97995.41;4950387;28;20070;-44
2021/11/12 06:30:08;;;;;;;48.03;17.93;;;1.90;99.90;;;2.42;73.00;98002.34;4980044;28;20197;-43
2021/11/12 06:32:36;;;;;;;74.53;19.27;;;1.90;99.90;;;2.44;72.71;98001.28;4949539;29;20262;-42
2021/11/12 06:35:05;;;;;;;51.03;18.27;;;2.00;99.90;;;2.42;72.94;98002.34;4949045;29;20062;-42
2021/11/12 06:37:33;;;;;;;51.77;17.77;;;1.90;99.90;;;2.40;73.04;97998.97;4949387;28;20252;-42
2021/11/12 06:40:02;;;;;;;71.77;17.90;;;1.90;99.90;;;2.41;72.80;97995.41;4949657;29;20055;-43
2021/11/12 06:42:35;;;;;;;35.90;17.27;;;2.00;99.90;;;2.38;72.78;98001.69;4949441;29;20062;-44
2021/11/12 06:50:42;;;;;;;60.43;19.07;;;1.80;99.90;;;2.32;72.62;97995.06;4948862;28;20070;-42
2021/11/12 06:53:13;;;;;;;49.83;19.20;;;1.90;99.90;;;2.35;72.80;98004.53;4948368;29;20065;-44
2021/11/12 06:55:41;;;;;;;87.83;19.33;;;1.90;99.90;;;2.38;72.79;97996.44;4949230;28;20062;-41
2021/11/12 06:58:08;;;;;;;41.63;18.10;;;2.00;99.90;;;2.43;73.27;97991.72;4950661;29;20266;-41
2021/11/12 07:00:36;;;;;;;66.13;21.00;;;2.00;99.90;;;2.46;73.04;97988.91;4948365;28;20061;-41
2021/11/12 07:03:04;;;;;;;44.13;19.60;;;2.10;99.90;;;2.51;73.22;97991.22;4949563;28;20047;-40
2021/11/12 07:05:32;;;;;;;62.93;21.00;;;2.10;99.90;;;2.55;73.05;97985.66;4949627;29;20061;-40
2021/11/12 07:08:00;;;;;;;44.63;19.50;;;2.20;99.90;;;2.60;73.08;97992.38;4949803;28;20055;-40
2021/11/12 07:10:28;;;;;;;65.50;20.43;;;2.30;99.90;;;2.62;72.74;97987.88;4950033;29;20073;-40
2021/11/12 07:12:55;;;;;;;47.77;19.13;;;2.30;99.90;;;2.64;72.92;97986.84;4950081;29;20071;-40
2021/11/12 07:15:23;;;;;;;38.07;18.93;;;2.30;99.90;;;2.66;73.22;97987.56;4948508;28;20379;-40
2021/11/12 07:17:51;;;;;;;44.03;19.13;;;2.30;99.90;;;2.68;72.73;97996.19;4962791;28;20046;-41
2021/11/12 07:20:19;;;;;;;46.23;18.03;;;2.30;99.90;;;2.70;73.09;97989.03;4969296;28;20061;-40
2021/11/12 07:22:47;;;;;;;42.53;17.77;;;2.30;99.90;;;2.73;73.23;97996.75;4969420;28;20054;-40
2021/11/12 07:25:15;;;;;;;44.40;18.03;;;2.40;99.90;;;2.76;73.13;97987.78;4983087;28;20249;-40
2021/11/12 07:27:43;;;;;;;32.77;18.93;;;2.40;99.90;;;2.80;73.35;97993.69;4968448;28;20089;-40
2021/11/12 07:30:19;;;;;;;38.20;18.40;;;2.40;99.90;;;2.84;73.05;97990.75;4968348;28;20245;-41
2021/11/12 07:32:49;;;;;;;35.90;20.17;;;2.50;99.90;;;2.89;73.22;97991.28;4966739;28;20256;-43
2021/11/12 07:35:23;;;;;;;45.53;21.53;;;2.60;99.90;;;2.94;73.21;97988.31;4967585;28;20060;-45
2021/11/12 07:37:57;;;;;;;43.90;18.48;;;2.60;99.90;;;2.93;73.08;97989.28;4967485;28;20058;-41
2021/11/12 07:44:07;;;;;;;44.37;19.13;;;2.60;99.90;;;3.01;73.37;97989.59;4968115;28;20058;-41
2021/11/12 07:46:32;;;;;;;40.97;18.70;;;2.70;99.90;;;3.06;73.20;97992.72;4968674;28;20548;-41
2021/11/12 07:49:02;;;;;;;62.70;19.83;;;2.70;99.90;;;3.07;72.94;97983.91;4967280;28;20058;-41
2021/11/12 07:51:30;;;;;;;45.43;18.83;;;2.80;99.90;;;3.09;73.32;97975.91;4967742;28;20058;-41
2021/11/12 07:53:58;;;;;;;39.03;17.63;;;2.70;99.90;;;3.11;72.82;97968.75;4967917;28;20056;-44
2021/11/12 07:56:26;;;;;;;35.63;18.43;;;2.80;99.90;;;3.18;73.38;97974.41;4968073;28;20046;-43
2021/11/12 07:58:54;;;;;;;44.00;18.67;;;2.90;99.90;;;3.20;73.60;97968.13;4966412;28;20061;-42
2021/11/12 08:01:23;;;;;;;56.47;17.40;;;2.90;99.90;;;3.20;73.26;97965.50;4969653;28;20378;-43
2021/11/12 08:03:54;;;;;;;38.07;19.70;;;2.80;99.90;;;3.24;73.26;97973.97;4966506;28;20063;-43
2021/11/12 08:06:24;;;;;;;38.57;19.43;;;2.90;99.90;;;3.24;73.19;97958.19;4968619;28;20062;-43
2021/11/12 08:09:02;;;;;;;38.70;19.83;;;2.90;99.90;;;3.27;73.42;97956.19;4965176;28;20411;-43
2021/11/12 08:14:22;;;;;;;50.63;20.00;;;3.00;99.90;;;3.37;73.17;97958.19;4965302;28;20062;-43
2021/11/12 08:22:36;;;;;;;39.13;17.73;;;3.10;99.90;;;3.44;72.97;97968.16;4983806;28;19925;-44
2021/11/12 08:25:12;;;;;;;36.30;18.97;;;3.10;99.90;;;3.46;73.03;97971.53;4968627;28;20364;-42
2021/11/12 08:27:58;;;;;;;41.37;21.10;;;3.20;99.90;;;3.49;73.38;97968.69;4966608;28;20253;-43
2021/11/12 08:33:22;;;;;;;44.33;19.37;;;3.20;99.90;;;3.53;72.82;97956.16;4966931;28;19918;-43
2021/11/12 08:39:00;;;;;;;43.03;18.77;;;3.20;99.90;;;3.59;73.08;97962.75;4966825;28;20064;-43
2021/11/12 08:44:35;;;;;;;38.42;19.30;;;3.20;99.90;;;3.56;73.11;97950.66;4958536;28;20062;-45
2021/11/12 08:49:37;;;;;;;44.77;21.17;;;3.30;99.90;;;3.67;73.01;97940.19;4966708;28;20056;-42
2021/11/12 08:52:08;;;;;;;41.77;22.57;;;3.40;99.90;;;3.70;73.10;97941.75;4965020;28;20261;-44
2021/11/12 08:54:39;;;;;;;49.03;23.53;;;3.40;99.90;;;3.74;73.00;97943.22;4965097;28;20360;-43
2021/11/12 08:57:11;;;;;;;40.57;22.80;;;3.50;99.90;;;3.79;73.17;97938.47;4966177;28;20050;-42
2021/11/12 08:59:40;;;;;;;43.87;24.67;;;3.50;99.90;;;3.83;73.42;97944.38;4974063;28;20062;-43
2021/11/12 09:02:11;;;;;;;42.23;22.10;;;3.60;99.90;;;3.89;73.49;97946.53;4978370;28;20050;-43
2021/11/12 09:04:39;;;;;;;56.03;22.23;;;3.60;99.90;;;3.90;73.19;97948.25;4976580;28;20371;-44
2021/11/12 09:07:10;;;;;;;38.53;21.53;;;3.60;99.90;;;3.91;72.97;97953.38;4978165;28;20110;-43
2021/11/12 09:09:40;;;;;;;71.80;22.53;;;3.60;99.90;;;3.88;72.93;97950.97;4978939;28;20063;-43
2021/11/12 09:12:10;;;;;;;41.53;22.13;;;3.50;99.90;;;3.91;73.45;97944.63;4977397;28;20058;-44
2021/11/12 09:14:48;;;;;;;43.00;22.37;;;3.60;99.90;;;3.95;73.08;97946.09;4975571;28;20066;-42
2021/11/12 09:17:21;;;;;;;50.13;23.03;;;3.60;99.90;;;3.99;73.25;97939.63;4973999;28;20396;-43
2021/11/12 09:22:23;;;;;;;44.80;21.50;;;3.60;99.90;;;3.91;73.60;97950.75;4982673;28;20050;-44
2021/11/12 09:24:51;;;;;;;55.03;21.27;;;3.60;99.90;;;3.89;73.18;97952.66;4981648;28;20069;-43
2021/11/12 09:27:21;;;;;;;68.80;22.00;;;3.50;99.90;;;3.83;72.67;97936.47;4982601;28;20050;-46
2021/11/12 09:29:50;;;;;;;68.20;23.83;;;3.40;99.90;;;3.75;72.86;97942.28;4982208;28;20361;-42
2021/11/12 09:32:19;;;;;;;41.87;22.83;;;3.30;99.90;;;3.74;72.82;97951.13;4982422;28;20069;-44
2021/11/12 09:34:47;;;;;;;42.10;24.63;;;3.30;99.90;;;3.79;73.57;97948.16;4982239;28;20263;-43
2021/11/12 09:37:21;;;;;;;43.10;23.43;;;3.40;99.90;;;3.85;73.23;97948.56;4973497;28;20065;-43
2021/11/12 09:39:57;;;;;;;44.33;23.43;;;3.50;99.90;;;3.89;73.40;97942.09;4979190;28;20059;-44
2021/11/12 09:42:28;;;;;;;49.27;24.70;;;3.60;99.90;;;3.95;73.47;97940.81;4980437;28;20061;-44
2021/11/12 09:44:59;;;;;;;39.70;22.47;;;3.70;99.90;;;3.97;73.40;97944.19;4981294;28;20050;-43
2021/11/12 09:47:28;;;;;;;59.80;23.97;;;3.60;99.90;;;4.01;73.15;97942.16;4980643;28;20065;-43
2021/11/12 09:50:03;;;;;;;51.70;22.33;;;3.70;99.90;;;4.04;73.73;97936.69;4979958;28;20066;-44
2021/11/12 09:52:32;;;;;;;46.53;21.30;;;3.70;99.90;;;4.03;73.58;97932.34;4981548;28;20054;-43
2021/11/12 09:55:01;;;;;;;44.83;23.50;;;3.70;99.90;;;4.06;73.31;97929.50;4982920;28;20051;-43
2021/11/12 09:57:30;;;;;;;44.03;21.33;;;3.70;99.90;;;4.09;73.11;97924.00;4980298;28;20055;-42
2021/11/12 10:00:02;;;;;;;42.70;20.73;;;3.80;99.90;;;4.12;73.07;97921.13;4980608;28;20047;-44
2021/11/12 10:02:42;;;;;;;40.80;21.97;;;3.90;99.90;;;4.16;73.18;97927.03;4983436;28;20051;-45
2021/11/12 10:05:13;;;;;;;43.63;20.10;;;3.90;99.90;;;4.17;73.09;97933.97;4982349;28;20065;-45
2021/11/12 10:07:42;;;;;;;56.67;20.60;;;3.90;99.90;;;4.13;73.70;97928.94;4982435;28;20127;-44
2021/11/12 10:10:14;;;;;;;67.30;23.63;;;3.80;99.90;;;4.07;72.80;97928.53;4981201;28;20050;-43
2021/11/12 10:12:47;;;;;;;69.27;24.13;;;3.60;99.90;;;3.97;73.23;97920.47;4979936;28;20112;-43
2021/11/12 10:15:30;;;;;;;44.93;21.60;;;3.50;99.90;;;3.93;73.22;97908.47;4976422;28;20088;-43
2021/11/12 10:18:08;;;;;;;64.63;21.77;;;3.50;99.90;;;3.97;73.23;97896.75;4971740;28;20308;-43
2021/11/12 10:20:36;;;;;;;73.13;22.97;;;3.60;99.90;;;4.01;72.96;97895.56;4967314;28;20055;-44
2021/11/12 10:23:16;;;;;;;102.57;25.27;;;3.60;99.90;;;3.98;73.21;97895.00;4968848;28;20084;-43
2021/11/12 10:26:04;;;;;;;51.50;22.17;;;3.60;99.90;;;4.00;73.14;97890.44;4967959;28;20059;-44
2021/11/12 10:28:44;;;;;;;58.70;20.97;;;3.60;99.90;;;3.99;73.06;97889.59;4967468;28;20058;-44
2021/11/12 10:31:16;;;;;;;43.47;20.87;;;3.60;99.90;;;4.02;73.74;97891.16;4969250;28;20371;-44
2021/11/12 10:33:50;;;;;;;91.07;25.30;;;3.70;99.90;;;3.96;73.25;97884.56;4968144;28;20640;-45
2021/11/12 10:36:20;;;;;;;88.57;23.95;;;3.60;99.90;;;3.91;73.21;97884.06;4975099;28;20053;-44
2021/11/12 10:38:49;;;;;;;38.10;20.47;;;3.50;99.90;;;3.93;73.75;97871.59;4980319;28;20050;-43
2021/11/12 10:41:24;;;;;;;49.80;23.50;;;3.50;99.90;;;3.99;73.94;97880.84;4981888;28;20051;-43
2021/11/12 10:43:54;;;;;;;44.57;22.50;;;3.60;99.90;;;4.05;74.00;97873.34;4981124;28;20458;-44
2021/11/12 10:46:41;;;;;;;53.33;22.10;;;3.70;99.90;;;4.16;74.13;97867.25;4981759;28;20057;-43
2021/11/12 10:49:38;;;;;;;46.53;22.67;;;3.90;99.90;;;4.25;73.64;97849.91;4979619;28;20062;-44
2021/11/12 10:52:14;;;;;;;41.30;20.60;;;4.00;99.90;;;4.31;73.35;97850.28;4980438;28;20293;-44
2021/11/12 10:57:17;;;;;;;42.38;20.27;;;4.10;99.90;;;4.40;74.08;97832.94;4979019;28;20375;-44
2021/11/12 10:59:57;;;;;;;56.67;22.37;;;4.10;99.90;;;4.44;73.03;97828.25;4979388;28;20051;-45
2021/11/12 11:02:50;;;;;;;42.47;21.80;;;4.20;99.90;;;4.46;73.54;97835.09;4981342;28;20045;-44
2021/11/12 11:05:31;;;;;;;46.90;24.30;;;4.20;99.90;;;4.51;73.97;97832.09;4981429;28;20055;-44
2021/11/12 11:08:06;;;;;;;44.97;25.13;;;4.30;99.90;;;4.53;73.34;97832.81;4981660;28;20065;-44
2021/11/12 11:10:43;;;;;;;46.87;23.87;;;4.30;99.90;;;4.56;73.44;97832.59;4982068;28;20062;-46
2021/11/12 11:13:40;;;;;;;42.47;23.70;;;4.30;99.90;;;4.61;72.73;97837.50;4980473;28;20276;-47
2021/11/12 11:16:18;;;;;;;39.90;22.17;;;4.30;99.90;;;4.65;73.64;97831.00;4980212;28;20051;-43
2021/11/12 11:18:54;;;;;;;35.33;21.87;;;4.40;99.90;;;4.70;73.43;97842.06;4981380;28;20053;-44
2021/11/12 11:23:59;;;;;;;46.17;23.37;;;4.50;99.90;;;4.76;73.49;97836.31;4980760;28;20290;-45
2021/11/12 11:26:43;;;;;;;40.03;22.50;;;4.50;99.90;;;4.80;73.75;97834.25;4981253;28;20046;-45
2021/11/12 11:29:16;;;;;;;41.72;22.17;;;4.50;99.90;;;4.79;73.10;97825.53;4980781;28;20055;-45
2021/11/12 11:31:45;;;;;;;37.07;21.70;;;4.50;99.90;;;4.82;73.84;97827.91;4980972;28;20065;-44
2021/11/12 11:34:13;;;;;;;36.57;22.87;;;4.60;99.90;;;4.86;73.28;97826.69;4980656;28;20073;-43
2021/11/12 11:36:45;;;;;;;47.67;25.73;;;4.60;99.90;;;4.90;73.59;97833.44;4980945;28;20050;-42
2021/11/12 11:39:16;;;;;;;42.50;25.17;;;4.60;99.90;;;4.90;73.18;97825.53;4979618;28;20042;-44
2021/11/12 11:41:46;;;;;;;39.77;21.90;;;4.60;99.90;;;4.95;73.69;97819.03;4979473;28;20050;-42
2021/11/12 11:44:16;;;;;;;44.33;25.97;;;4.70;99.90;;;4.97;73.31;97815.31;4980466;28;20065;-42
2021/11/12 11:46:48;;;;;;;39.83;23.97;;;4.70;99.90;;;5.00;72.93;97814.22;4980656;28;20055;-42
2021/11/12 11:49:21;;;;;;;41.27;23.60;;;4.70;99.90;;;4.98;73.07;97808.22;4979967;28;20214;-42
2021/11/12 11:51:54;;;;;;;42.07;24.77;;;4.70;99.90;;;5.00;72.96;97801.88;4979238;28;20064;-42
2021/11/12 11:54:53;;;;;;;43.90;23.07;;;4.70;99.90;;;5.04;73.08;97792.75;4980877;28;20530;-42
2021/11/12 11:57:26;;;;;;;40.60;23.17;;;4.80;99.90;;;5.09;73.26;97795.00;4980126;28;20398;-42
2021/11/12 12:00:21;;;;;;;48.65;25.80;;;4.80;99.90;;;5.04;73.36;97782.19;4979504;28;20065;-42
2021/11/12 12:03:21;;;;;;;46.63;22.75;;;4.70;99.90;;;4.97;73.08;97782.81;4979712;28;20065;-42
2021/11/12 12:06:19;;;;;;;46.60;23.20;;;4.50;99.90;;;4.97;72.65;97773.09;4979259;28;20062;-42
2021/11/12 12:08:55;;;;;;;56.37;27.23;;;4.60;99.90;;;4.98;73.11;97771.28;4979936;28;20349;-42
2021/11/12 12:11:24;;;;;;;55.30;28.23;;;4.60;99.90;;;4.99;73.60;97765.06;4980008;28;20050;-42
2021/11/12 12:14:33;;;;;;;44.20;25.93;;;4.60;99.90;;;5.04;72.73;97770.78;4978972;28;20061;-42
2021/11/12 12:17:09;;;;;;;43.87;22.70;;;4.80;99.90;;;5.10;73.16;97770.31;4980244;28;20122;-42
2021/11/12 13:25:56;;;;;;;87.30;27.70;;;4.50;99.90;;;4.77;73.15;97715.78;4978733;28;20046;-43
2021/11/12 13:28:34;;;;;;;77.87;28.80;;;4.40;99.90;;;4.72;73.76;97719.66;4976275;28;20054;-43
2021/11/12 13:31:16;;;;;;;96.87;29.53;;;4.40;99.90;;;4.67;73.45;97708.66;4977841;28;20073;-42
2021/11/12 13:33:56;;;;;;;90.17;27.07;;;4.30;99.90;;;4.64;73.44;97710.69;4975291;28;20066;-43
2021/11/12 13:36:35;;;;;;;65.07;27.23;;;4.20;99.90;;;4.58;72.83;97706.72;4977823;28;20047;-42
2021/11/12 13:39:17;;;;;;;73.87;26.50;;;4.10;99.90;;;4.59;73.13;97705.75;4978058;28;20355;-42
2021/11/12 13:41:59;;;;;;;124.87;30.03;;;4.20;99.90;;;4.53;73.17;97709.72;4975822;28;20042;-43
2021/11/12 13:44:35;;;;;;;83.43;25.30;;;4.10;99.90;;;4.58;72.97;97704.09;4977784;28;20047;-42
2021/11/12 13:47:11;;;;;;;78.20;27.70;;;4.10;99.90;;;4.60;73.41;97711.88;4978841;28;20061;-43
2021/11/12 13:49:48;;;;;;;64.80;25.50;;;4.20;99.90;;;4.58;73.89;97713.81;4978853;28;20345;-42
2021/11/12 13:52:20;;;;;;;58.70;25.87;;;4.10;99.90;;;4.56;73.04;97726.28;4976421;28;20218;-44
2021/11/12 13:54:53;;;;;;;58.90;24.37;;;4.10;99.90;;;4.56;73.94;97718.38;4978250;28;20059;-43
2021/11/12 13:57:27;;;;;;;144.07;30.87;;;4.10;99.90;;;4.50;73.10;97728.44;4978764;28;20069;-43
2021/11/12 14:00:02;;;;;;;93.63;30.40;;;4.00;99.90;;;4.45;73.20;97727.94;4978898;28;20050;-43
2021/11/12 14:03:04;;;;;;;111.90;28.23;;;4.00;99.90;;;4.22;73.56;97729.75;4977219;28;20061;-43
2021/11/12 14:05:38;;;;;;;158.50;31.10;;;3.80;99.90;;;4.07;74.08;97733.56;4980120;28;20051;-43
2021/11/12 14:08:10;;;;;;;56.20;25.70;;;3.60;99.90;;;4.00;73.57;97733.22;4982406;28;20043;-43
2021/11/12 14:10:47;;;;;;;115.03;27.47;;;3.40;99.90;;;3.81;74.94;97728.50;4980990;28;20043;-43
2021/11/12 14:13:19;;;;;;;84.97;27.80;;;3.40;99.90;;;3.80;74.30;97733.88;4982139;28;20253;-43
2021/11/12 14:16:21;;;;;;;98.30;28.00;;;3.30;99.90;;;3.66;74.80;97734.94;4982239;28;20370;-43
2021/11/12 14:49:17;;;;;;;131.87;24.80;;;3.40;99.90;;;3.64;75.38;97711.34;4982112;28;20122;-42
2021/11/12 14:52:03;;;;;;;56.37;22.07;;;3.20;99.90;;;3.71;75.17;97711.72;4980176;28;20378;-43
2021/11/12 14:54:37;;;;;;;45.73;21.53;;;3.30;99.90;;;3.79;75.32;97708.53;4980492;28;20069;-40
2021/11/12 14:57:15;;;;;;;;;;;3.40;99.90;;;3.77;75.22;97723.59;4982505;28;20057;-40
2021/11/12 14:59:44;;;;;;;75.83;25.43;;;3.50;99.90;;;3.78;75.22;97728.75;4981625;28;19926;-40
2021/11/12 15:02:12;;;;;;;96.83;24.27;;;3.50;99.90;;;3.75;75.33;97723.72;4981504;28;20046;-39
2021/11/12 15:04:41;;;;;;;67.20;23.03;;;3.50;99.90;;;3.76;74.69;97722.72;4980548;28;20050;-40
2021/11/12 15:07:13;;;;;;;51.60;24.33;;;3.50;99.90;;;3.81;75.00;97728.50;4981376;28;20055;-41
2021/11/12 15:09:42;;;;;;;96.07;25.90;;;3.50;99.90;;;3.81;74.80;97720.59;4980673;28;20055;-41
2021/11/12 15:12:12;;;;;;;50.20;23.43;;;3.50;99.90;;;3.82;75.21;97714.41;4981507;28;20281;-41
2021/11/12 15:14:48;;;;;;;132.93;26.27;;;3.50;99.90;;;3.77;75.19;97715.69;4981659;28;20247;-41
2021/11/12 15:17:18;;;;;;;103.40;26.90;;;3.50;99.90;;;3.79;74.53;97721.69;4981288;28;20258;-42
2021/11/12 15:19:47;;;;;;;136.73;30.37;;;3.50;99.90;;;3.71;74.51;97719.63;4981778;28;20050;-41
2021/11/12 15:22:31;;;;;;;125.03;28.67;;;3.40;99.90;;;3.67;74.89;97723.47;4980901;28;20233;-41
2021/11/12 15:32:59;;;;;;;90.13;27.00;;;3.20;99.90;;;3.53;75.56;97719.25;4981959;28;20369;-39
2021/11/12 15:35:30;;;;;;;76.57;26.83;;;3.20;99.90;;;3.53;74.93;97716.59;4981274;28;20341;-39
2021/11/12 15:38:19;;;;;;;187.83;39.50;;;3.20;99.90;;;3.53;75.14;97713.97;4981404;28;20398;-40
2021/11/12 15:40:58;;;;;;;94.97;29.93;;;3.20;99.90;;;3.53;75.06;97724.50;4981078;28;20046;-39
2021/11/12 15:44:12;;;;;;;98.20;26.43;;;3.20;99.90;;;3.55;75.59;97722.59;4981335;28;20039;-39
2021/11/12 15:46:31;;;;;;;141.43;49.43;;;3.30;99.90;;;3.52;74.90;97725.44;4981871;28;20062;-39
2021/11/12 15:49:00;;;;;;;117.87;34.50;;;3.20;99.90;;;3.47;75.50;97730.19;4981450;28;20061;-39
2021/11/12 15:54:42;;;;;;;63.73;22.40;;;3.10;99.90;;;3.45;75.08;97732.97;4978221;28;20062;-39
2021/11/12 16:00:08;;;;;;;126.47;25.87;;;3.30;99.90;;;3.65;75.32;97739.38;4980959;28;20054;-38
2021/11/12 16:05:29;;;;;;;63.93;21.90;;;3.50;99.90;;;3.68;74.96;97738.28;4980713;28;20043;-39
2021/11/12 16:13:41;;;;;;;85.07;24.10;;;3.50;99.90;;;3.82;75.47;97721.44;4978636;28;20051;-39
2021/11/12 16:21:12;;;;;;;123.80;24.87;;;3.60;99.90;;;3.89;75.08;97714.75;4979761;28;20349;-39